Date,TemperatureHighF,TemperatureAvgF,TemperatureLowF,DewpointHighF,DewpointAvgF,DewpointLowF,HumidityHigh,HumidityAvg,HumidityLow,PressureMaxIn,PressureMinIn,WindSpeedMaxMPH,WindSpeedAvgMPH,GustSpeedMaxMPH,PrecipitationSumIn
2013-1-1,32.7,21.8,14.9,31.2,16.8,11.5,94,81,68,30.34,30.15,4,0,0,0.00
2013-1-2,32.6,20.4,9.3,19.5,14.2,7.0,93,78,51,30.35,30.25,4,0,0,0.00
2013-1-3,40.4,29.5,14.1,28.6,22.8,11.9,94,77,57,30.46,30.28,6,0,0,0.05
2013-1-4,41.9,29.2,18.2,25.6,21.6,16.5,94,76,46,30.50,30.36,8,1,12,0.03
2013-1-5,45.5,36.1,18.5,32.1,26.1,16.3,93,68,51,30.37,30.15,8,1,0,0.02
2013-1-6,41.5,31.2,18.5,32.3,23.3,16.1,91,74,49,30.44,30.14,8,1,16,0.00
2013-1-7,49.3,30.9,13.6,27.9,22.4,11.5,94,73,40,30.45,30.20,10,1,0,0.00
2013-1-8,56.9,40.3,22.4,36.4,26.4,19.9,92,62,25,30.26,30.12,9,1,12,0.00
2013-1-9,57.4,45.2,33.2,42.7,35.1,30.8,96,70,43,30.50,30.21,7,0,0,0.00
2013-1-10,55.5,46.1,35.4,54.7,43.5,31.6,97,91,63,30.49,29.81,8,2,12,0.58
2013-1-11,64.0,56.4,49.1,54.2,48.3,46.3,97,75,57,29.91,29.79,14,2,19,0.01
2013-1-12,56.7,45.2,30.8,49.8,38.7,29.0,95,79,52,29.98,29.83,8,1,13,0.82
2013-1-13,30.8,22.9,15.1,29.0,18.8,12.2,93,84,75,30.43,29.95,9,1,13,0.00
2013-1-14,28.2,19.7,12.0,15.9,13.0,9.6,93,76,53,30.58,30.43,5,0,0,0.00
2013-1-15,29.4,22.8,10.9,21.4,16.6,8.3,93,78,60,30.50,30.20,7,0,0,0.00
2013-1-16,44.2,28.4,15.8,24.5,19.6,13.8,93,72,39,30.23,30.08,7,0,0,0.00
2013-1-17,42.3,32.9,19.0,29.6,23.5,16.3,91,70,41,30.54,30.18,10,1,12,0.00
2013-1-18,56.4,44.6,18.3,28.8,25.2,16.1,93,48,28,30.54,30.17,16,3,16,0.00
2013-1-19,66.8,54.9,41.1,34.9,32.2,27.1,60,43,29,30.18,29.93,12,2,16,0.00
2013-1-20,47.3,30.9,24.6,31.8,13.3,10.3,70,48,34,30.38,30.16,6,1,0,0.00
2013-1-21,27.7,20.7,14.7,11.1,2.1,-2.8,64,44,30,30.47,30.35,10,2,17,0.00
2013-1-22,18.8,15.8,10.9,10.3,5.6,-1.3,89,65,44,30.55,30.43,3,0,0,0.00
2013-1-23,45.1,31.4,11.3,23.6,18.6,8.4,91,61,41,30.45,30.20,6,0,13,0.00
2013-1-24,27.9,22.9,14.8,14.7,7.9,1.6,71,53,42,30.66,30.29,11,3,13,0.00
2013-1-25,44.7,37.6,26.3,23.4,20.3,11.9,61,50,40,30.30,30.17,7,1,0,0.00
2013-1-26,41.3,33.6,25.6,21.1,16.4,13.7,69,50,33,30.44,30.28,8,1,0,0.00
2013-1-27,55.2,41.1,28.9,52.1,38.7,18.1,96,91,63,30.35,30.00,9,2,14,0.06
2013-1-28,73.7,65.5,55.4,62.0,58.9,52.2,89,80,64,30.01,29.86,10,2,16,0.00
2013-1-29,68.1,61.2,52.6,60.3,56.9,51.2,96,86,70,29.86,29.44,17,3,18,1.53
2013-1-30,52.6,34.6,27.4,51.5,28.3,16.6,96,77,63,29.97,29.39,13,3,18,0.16
2013-1-31,34.1,24.2,11.1,26.3,14.1,0.2,88,65,56,30.46,29.97,12,3,17,0.00
2013-2-1,29.8,21.6,6.3,12.1,6.1,0.3,76,52,36,30.57,30.29,7,1,0,0.00
2013-2-2,43.7,35.4,28.3,29.0,22.9,11.2,92,61,44,30.29,30.10,12,1,15,0.00
2013-2-3,36.6,30.1,22.3,29.0,19.8,14.9,92,67,41,30.25,30.05,8,1,15,0.11
2013-2-4,60.4,44.2,27.5,36.6,30.7,21.3,81,61,38,30.05,29.81,8,1,12,0.03
2013-2-5,58.1,41.5,26.7,35.2,30.0,24.2,92,67,39,30.18,29.93,9,1,13,0.00
2013-2-6,53.1,40.3,21.7,32.7,29.6,20.2,96,68,42,30.28,30.09,8,1,0,0.00
2013-2-7,54.5,45.6,33.8,47.5,39.4,29.8,92,80,58,30.09,29.89,9,1,13,0.14
2013-2-8,39.7,34.7,31.3,36.4,29.2,26.3,88,80,74,30.42,30.09,8,1,12,0.00
2013-2-9,42.8,35.2,29.5,35.6,28.4,25.3,91,76,61,30.41,30.06,11,3,14,0.19
2013-2-10,58.6,48.7,38.0,52.7,40.3,29.8,95,76,38,30.06,29.62,18,3,20,0.46
2013-2-11,51.6,40.5,24.5,30.2,26.6,22.3,92,59,37,30.19,29.83,11,2,19,0.00
2013-2-12,45.9,35.0,21.0,31.9,27.0,19.3,96,74,48,30.22,29.99,4,0,0,0.00
2013-2-13,54.9,42.4,34.9,33.3,30.5,26.8,83,65,34,30.00,29.84,9,1,13,0.00
2013-2-14,57.0,47.9,35.1,36.9,32.6,29.3,81,56,38,30.10,29.88,9,1,0,0.00
2013-2-15,40.4,33.2,22.4,30.0,16.6,11.5,80,52,31,30.32,30.10,10,1,12,0.00
2013-2-16,38.5,28.5,15.2,16.9,11.9,7.9,88,53,29,30.33,30.22,12,1,14,0.00
2013-2-17,49.2,40.4,15.6,31.3,24.4,12.4,88,55,35,30.24,29.95,11,2,15,0.00
2013-2-18,56.7,48.4,32.8,47.9,40.9,23.4,90,76,65,29.96,29.58,19,4,20,0.17
2013-2-19,36.8,30.3,23.3,24.1,13.4,8.5,70,50,34,30.36,29.96,14,2,20,0.00
2013-2-20,26.7,23.4,17.4,13.9,12.0,9.0,78,61,53,30.48,30.35,5,0,0,0.00
2013-2-21,31.2,27.2,18.8,29.7,23.6,12.9,94,86,69,30.38,29.88,15,3,20,0.00
2013-2-22,35.7,30.2,14.8,32.0,24.3,12.7,94,79,64,30.14,29.88,9,1,0,0.01
2013-2-23,38.7,28.5,10.6,21.1,18.9,8.3,95,69,47,30.11,30.04,5,0,12,0.23
2013-2-24,46.1,35.8,12.8,27.6,24.5,10.4,95,66,42,30.18,30.08,7,1,0,0.16
2013-2-25,47.3,40.2,22.0,33.0,30.5,20.5,96,70,52,30.09,29.64,11,2,15,0.32
2013-2-26,40.4,36.4,33.1,39.4,34.9,31.1,96,94,91,29.72,29.38,7,1,15,0.80
2013-2-27,34.9,32.8,31.4,32.0,29.6,27.1,92,88,85,29.95,29.72,11,2,13,0.11
2013-2-28,35.1,33.1,31.2,29.8,28.8,27.4,91,84,77,30.16,29.94,6,1,0,0.01
2013-3-1,33.6,30.9,28.1,29.9,27.1,24.0,91,85,81,30.25,30.14,8,1,0,0.03
2013-3-2,34.2,27.9,16.9,24.2,19.0,14.2,91,70,54,30.32,30.25,6,1,12,0.03
2013-3-3,39.9,33.7,14.9,26.2,21.6,13.0,93,62,47,30.28,30.08,5,1,0,0.01
2013-3-4,53.4,45.1,35.3,40.9,33.8,26.0,89,65,50,30.08,29.78,14,3,18,0.00
2013-3-5,41.7,33.7,30.9,36.1,27.1,22.3,93,77,59,30.19,29.82,12,3,19,0.23
2013-3-6,38.7,32.6,20.9,25.8,22.8,18.3,92,68,55,30.42,30.18,8,1,14,0.00
2013-3-7,47.7,38.3,17.9,30.9,27.6,16.0,94,67,45,30.47,30.34,7,2,0,0.00
2013-3-8,53.1,45.2,28.6,34.5,31.5,25.8,90,60,43,30.47,30.23,11,3,14,0.00
2013-3-9,69.8,53.8,39.8,44.0,37.6,32.3,90,59,28,30.23,29.82,13,3,20,0.39
2013-3-10,61.2,51.4,45.3,52.2,48.8,42.5,96,91,52,29.82,29.66,5,1,0,1.79
2013-3-11,45.3,34.8,32.7,42.5,29.8,25.5,90,82,69,30.05,29.75,11,2,16,0.00
2013-3-12,51.0,38.4,27.0,29.4,25.3,22.1,87,61,35,30.27,30.04,12,2,22,0.00
2013-3-13,43.0,33.2,22.2,22.9,18.9,16.7,89,58,36,30.47,30.27,11,1,15,0.00
2013-3-14,54.2,37.8,22.5,33.5,26.8,19.2,91,67,37,30.45,30.13,8,1,14,0.01
2013-3-15,72.1,50.9,27.5,47.9,38.7,25.8,95,68,33,30.13,29.69,5,0,0,0.00
2013-3-16,64.1,47.6,38.8,47.9,39.4,35.6,91,74,48,30.08,29.67,10,1,14,0.03
2013-3-17,38.8,35.7,33.0,35.6,32.4,28.5,93,88,80,30.13,29.82,9,1,14,1.44
2013-3-18,50.3,42.7,36.7,38.7,34.4,22.5,95,74,50,30.07,29.75,11,1,13,0.02
2013-3-19,48.6,39.5,26.8,23.4,17.7,10.7,83,45,22,30.26,30.07,8,1,0,0.00
2013-3-20,36.4,30.7,20.1,23.4,14.9,9.8,81,53,37,30.34,30.16,12,2,22,0.00
2013-3-21,39.7,32.5,15.0,20.2,15.7,11.7,89,51,35,30.18,30.03,6,1,0,0.00
2013-3-22,41.9,38.2,32.0,26.3,24.2,19.7,67,57,48,30.09,30.02,7,1,0,0.00
2013-3-23,54.0,47.0,37.5,36.8,28.7,19.7,81,50,37,30.08,29.85,10,2,13,0.05
2013-3-24,41.7,31.8,30.6,36.5,30.1,29.1,95,93,81,29.88,29.61,11,1,13,0.13
2013-3-25,39.1,33.2,28.3,31.2,27.3,24.2,94,79,63,30.25,29.88,8,2,14,0.39
2013-3-26,43.4,35.6,22.2,26.1,23.5,20.2,92,63,43,30.41,30.25,8,1,0,0.28
2013-3-27,48.8,40.6,17.1,31.3,26.2,15.2,95,59,38,30.45,30.34,8,0,15,0.00
2013-3-28,57.4,49.4,36.7,38.7,34.4,26.6,71,57,48,30.39,30.25,8,2,12,0.00
2013-3-29,63.4,52.9,36.7,47.1,42.4,34.9,96,69,49,30.27,30.19,6,1,0,0.01
2013-3-30,53.5,48.1,37.9,47.0,44.4,36.4,96,87,69,30.23,29.95,11,1,12,0.13
2013-3-31,69.4,59.8,47.3,51.7,41.6,32.2,95,55,26,29.96,29.87,7,1,12,0.00
2013-4-1,51.3,43.1,29.0,35.2,25.2,16.1,82,51,28,30.28,29.96,11,1,13,0.00
2013-4-2,49.1,39.7,22.0,26.4,19.3,7.2,91,48,19,30.41,30.27,6,1,0,0.00
2013-4-3,53.3,45.6,24.4,28.5,23.6,17.7,88,44,28,30.45,30.29,14,2,14,0.00
2013-4-4,61.9,49.8,25.3,32.0,25.3,20.3,92,43,21,30.29,30.07,8,1,0,0.00
2013-4-5,68.4,58.0,32.6,40.4,34.4,28.7,87,44,26,30.21,30.06,6,1,0,0.00
2013-4-6,75.2,67.0,42.0,43.8,38.4,33.0,82,37,23,30.06,29.73,23,4,27,0.00
2013-4-7,78.1,66.5,49.9,60.1,50.1,43.8,86,58,35,29.93,29.70,14,1,18,0.10
2013-4-8,80.7,73.2,62.9,61.4,57.9,54.7,83,59,47,29.88,29.72,13,3,18,0.00
2013-4-9,79.5,71.9,60.0,62.8,59.9,56.0,87,66,55,29.89,29.80,17,3,18,0.00
2013-4-10,84.7,69.5,59.8,67.5,62.7,56.0,96,80,51,29.84,29.58,14,2,23,1.20
2013-4-11,60.2,44.4,40.2,59.1,37.3,30.5,96,76,67,29.79,29.67,11,2,0,0.09
2013-4-12,45.1,41.7,34.0,34.0,31.2,29.0,89,66,59,30.06,29.77,12,2,17,0.00
2013-4-13,63.3,55.5,33.6,41.9,36.4,30.6,90,51,35,30.12,29.92,7,1,12,0.00
2013-4-14,79.7,68.9,43.5,55.2,48.8,40.2,90,52,28,29.92,29.60,19,5,22,0.00
2013-4-15,70.8,62.5,53.2,61.8,56.6,49.4,94,82,66,29.95,29.74,8,1,12,0.17
2013-4-16,53.4,46.8,44.0,49.8,44.6,42.2,94,92,87,30.17,29.90,7,1,0,1.06
2013-4-17,85.6,71.8,48.4,69.0,60.6,45.3,96,70,50,30.15,29.68,16,3,17,0.00
2013-4-18,76.5,53.9,41.1,65.1,49.9,31.7,96,86,68,29.81,29.57,11,2,16,2.41
2013-4-19,52.6,43.9,31.4,31.7,27.1,23.1,89,53,32,30.11,29.79,14,3,18,0.00
2013-4-20,58.0,49.0,27.6,35.2,29.3,25.0,96,50,29,30.37,30.11,8,1,0,0.00
2013-4-21,63.6,56.0,42.5,41.9,37.8,30.8,68,51,42,30.44,30.26,11,3,13,0.00
2013-4-22,72.9,63.9,34.5,48.5,42.4,33.2,96,48,30,30.29,29.98,11,2,15,0.00
2013-4-23,57.6,49.2,39.3,55.3,46.9,37.4,94,92,73,30.07,29.89,9,1,0,0.99
2013-4-24,55.7,45.0,34.1,37.4,32.7,26.1,93,66,33,30.29,30.05,10,2,15,0.03
2013-4-25,67.1,53.4,33.9,40.8,34.1,27.4,92,52,27,30.39,30.29,7,1,14,0.00
2013-4-26,59.7,52.3,42.0,48.8,44.9,38.6,92,76,61,30.41,30.29,12,2,14,0.01
2013-4-27,53.7,51.3,48.5,52.3,49.7,46.0,96,94,87,30.32,29.96,6,0,0,0.47
2013-4-28,57.6,54.1,43.7,51.6,49.9,42.1,96,86,77,30.01,29.93,6,1,0,0.00
2013-4-29,81.3,63.5,40.8,61.7,53.8,39.7,97,74,46,29.97,29.78,11,2,15,0.01
2013-4-30,88.1,75.1,60.1,62.1,55.6,48.3,88,55,26,29.95,29.81,11,2,15,0.00
2013-5-1,83.7,69.4,49.5,60.5,55.6,48.1,97,66,37,30.08,29.94,8,1,0,0.00
2013-5-2,71.3,58.8,43.3,61.5,51.8,41.3,97,79,57,30.19,30.08,7,1,12,0.73
2013-5-3,43.3,40.4,38.9,41.4,38.7,37.1,95,94,93,30.12,29.86,7,1,0,2.63
2013-5-4,54.0,47.0,39.2,42.7,40.2,37.0,95,78,54,30.04,29.90,7,1,0,0.00
2013-5-5,61.6,55.4,43.5,56.9,52.6,41.6,95,90,80,30.02,29.91,6,1,0,0.10
2013-5-6,68.8,62.8,53.0,56.7,54.3,51.1,95,75,58,30.00,29.95,11,1,16,0.01
2013-5-7,79.4,68.6,53.6,59.2,55.2,49.6,95,66,37,30.05,29.98,7,1,0,0.00
2013-5-8,84.1,69.1,48.6,62.4,54.5,46.6,97,66,28,30.05,29.97,7,0,0,0.00
2013-5-9,78.6,68.4,60.0,64.8,60.4,57.5,95,77,49,29.99,29.84,11,1,13,0.05
2013-5-10,67.0,61.6,55.8,61.1,56.5,51.0,94,84,71,30.02,29.85,7,1,0,0.03
2013-5-11,70.7,60.1,44.8,54.9,44.1,31.7,95,59,28,30.19,30.00,12,2,16,0.00
2013-5-12,63.8,51.3,35.3,37.9,31.6,24.6,89,52,24,30.27,30.17,8,1,14,0.00
2013-5-13,75.5,56.8,33.2,48.2,38.6,31.7,97,58,24,30.27,30.05,7,1,0,0.00
2013-5-14,93.5,74.8,49.3,58.9,51.5,46.5,92,50,24,30.05,29.81,11,2,16,0.00
2013-5-15,91.9,82.5,67.8,64.7,61.3,50.6,73,50,34,29.95,29.80,9,1,12,0.00
2013-5-16,81.9,73.8,61.4,70.1,62.4,57.6,89,69,45,29.95,29.87,8,1,14,0.08
2013-5-17,77.3,71.0,61.3,68.0,64.3,57.8,95,80,67,29.97,29.91,6,1,0,0.05
2013-5-18,84.1,75.6,61.2,67.9,65.7,59.8,97,73,55,30.02,29.87,9,1,0,0.00
2013-5-19,90.9,83.2,69.5,75.1,69.1,63.4,89,64,44,29.90,29.69,13,3,17,0.00
2013-5-20,82.0,71.4,62.6,69.9,64.8,60.8,94,81,61,29.90,29.68,9,2,15,1.45
2013-5-21,81.3,71.9,63.0,67.3,63.6,60.9,94,76,57,29.81,29.70,8,1,0,0.04
2013-5-22,76.6,70.3,60.7,62.0,57.5,54.1,94,65,50,29.89,29.71,10,2,15,0.00
2013-5-23,66.8,61.6,52.8,60.4,54.5,49.2,94,78,63,30.24,29.89,11,1,13,0.02
2013-5-24,71.2,60.6,44.7,50.1,40.2,34.2,97,52,27,30.43,30.24,9,1,13,0.00
2013-5-25,68.8,63.2,45.4,60.4,54.4,43.3,93,74,53,30.36,30.14,8,1,12,0.09
2013-5-26,83.5,71.6,56.5,74.4,62.3,52.6,94,74,56,30.20,29.99,8,1,0,0.34
2013-5-27,84.6,72.3,63.3,71.5,65.5,61.7,96,81,61,30.02,29.74,11,1,16,0.67
2013-5-28,84.8,76.7,63.3,72.3,67.9,62.1,96,75,58,29.90,29.80,12,2,16,0.02
2013-5-29,86.8,81.3,65.2,69.3,65.5,60.6,95,60,45,29.96,29.81,12,3,20,0.00
2013-5-30,82.2,75.0,64.9,71.5,67.7,62.8,93,79,63,29.92,29.79,12,3,21,0.53
2013-5-31,79.8,72.8,64.7,72.7,67.7,62.6,95,84,73,29.90,29.72,10,2,16,2.43
2013-6-1,78.6,70.0,60.1,68.4,63.2,56.6,96,80,59,29.90,29.75,11,2,15,0.38
2013-6-2,68.0,64.1,59.9,59.2,56.7,52.5,83,77,70,30.04,29.90,5,1,0,0.00
2013-6-3,73.7,65.7,53.7,54.9,51.3,47.1,93,62,43,30.11,29.99,7,1,0,0.00
2013-6-4,77.9,68.8,51.3,60.1,56.9,50.5,97,67,47,30.10,30.00,7,1,0,0.00
2013-6-5,82.3,71.8,56.1,65.5,61.8,55.0,97,73,44,30.03,29.85,5,0,0,0.10
2013-6-6,78.7,71.4,60.6,65.8,60.2,53.7,94,69,49,29.89,29.84,9,1,0,0.00
2013-6-7,76.1,67.8,58.1,62.0,58.1,55.4,93,73,53,29.93,29.88,6,1,0,0.00
2013-6-8,81.2,72.1,55.8,61.3,57.8,54.0,97,63,42,29.99,29.90,7,1,0,0.00
2013-6-9,79.1,68.4,58.8,66.0,62.5,56.5,97,83,60,29.95,29.80,9,1,13,0.14
2013-6-10,80.7,71.8,61.6,65.5,62.5,59.9,95,74,53,29.92,29.81,7,1,14,0.05
2013-6-11,92.8,82.2,59.0,75.9,71.5,58.1,97,72,49,29.98,29.85,11,1,0,0.04
2013-6-12,94.7,88.0,68.1,75.5,72.8,66.9,96,62,50,29.95,29.73,11,2,15,0.00
2013-6-13,84.1,75.0,62.7,70.4,64.1,60.0,92,70,51,29.99,29.75,10,1,13,0.00
2013-6-14,85.3,76.1,58.1,64.6,61.5,57.0,97,63,43,30.10,29.95,9,1,0,0.00
2013-6-15,89.8,77.9,65.0,72.4,67.2,61.1,95,71,52,30.10,29.93,11,1,14,0.32
2013-6-16,87.7,76.9,68.0,75.3,70.7,66.5,96,82,61,30.03,29.90,7,0,0,0.39
2013-6-17,87.6,73.2,64.6,75.6,68.2,63.4,97,86,60,29.96,29.85,8,1,0,0.69
2013-6-18,89.7,76.4,60.4,72.9,65.0,59.5,98,71,42,29.97,29.91,8,1,0,0.01
2013-6-19,87.9,75.3,60.8,68.5,64.4,59.7,97,72,43,30.07,29.97,5,0,0,0.00
2013-6-20,90.4,78.7,62.5,72.1,68.1,61.3,97,73,48,30.11,30.03,7,1,0,0.00
2013-6-21,91.8,80.8,66.3,76.3,71.1,65.1,97,74,57,30.10,29.99,10,1,13,0.00
2013-6-22,90.5,74.8,67.6,77.6,68.5,63.4,92,81,57,30.08,29.99,9,1,15,0.24
2013-6-23,90.4,75.2,66.5,76.2,68.5,64.1,96,81,57,30.07,29.94,11,1,15,1.00
2013-6-24,92.9,84.4,66.3,77.4,72.8,65.1,97,70,50,30.07,29.92,8,1,0,0.00
2013-6-25,93.6,85.7,73.9,77.0,73.8,69.5,87,69,54,29.96,29.78,9,1,0,0.00
2013-6-26,93.8,80.9,73.2,79.3,74.3,69.9,96,82,56,29.85,29.72,17,1,17,0.79
2013-6-27,94.1,84.9,68.8,76.9,71.4,65.5,97,67,42,29.89,29.76,7,1,0,0.01
2013-6-28,89.0,81.7,70.9,72.4,64.2,55.6,95,58,35,29.85,29.70,17,2,17,0.03
2013-6-29,83.8,73.0,65.0,67.1,62.0,58.7,91,69,49,29.75,29.65,11,1,16,0.31
2013-6-30,78.6,68.7,64.4,66.5,63.1,60.3,95,83,60,29.92,29.74,7,1,12,0.23
2013-7-1,80.2,74.2,64.2,62.9,56.4,53.0,95,55,43,29.98,29.92,10,2,12,0.00
2013-7-2,70.0,62.9,61.4,61.1,58.9,53.0,93,87,55,30.06,29.98,6,1,0,0.30
2013-7-3,83.9,75.0,62.0,64.7,62.3,59.4,93,67,45,30.10,30.01,5,1,0,0.00
2013-7-4,85.8,76.5,58.7,65.2,62.3,57.6,97,64,42,30.10,30.00,6,1,0,0.00
2013-7-5,85.0,77.4,62.0,71.6,66.6,60.7,97,71,52,30.08,30.00,6,1,0,0.00
2013-7-6,90.0,76.7,64.4,71.9,66.9,61.7,97,75,41,30.05,29.96,9,1,12,0.06
2013-7-7,92.4,82.6,64.5,74.8,70.3,63.3,97,69,48,30.05,29.98,7,1,0,0.01
2013-7-8,93.4,84.7,72.3,76.9,73.6,68.5,88,70,52,30.09,30.00,8,1,0,0.00
2013-7-9,95.1,87.8,76.8,78.0,75.2,70.9,88,67,54,30.05,29.91,7,1,0,0.00
2013-7-10,87.3,78.5,70.9,77.7,72.4,68.3,93,82,63,30.00,29.89,11,1,12,0.29
2013-7-11,85.2,77.1,62.6,68.7,61.7,58.9,93,61,42,30.06,29.99,11,1,12,0.00
2013-7-12,86.4,71.9,56.7,65.7,59.1,54.5,97,69,35,30.13,30.03,8,1,0,0.00
2013-7-13,87.0,72.6,55.3,66.2,60.4,54.2,97,70,40,30.11,30.01,7,1,0,0.00
2013-7-14,89.7,81.1,62.7,71.5,68.2,61.8,97,67,49,30.15,30.05,8,1,0,0.00
2013-7-15,91.8,83.9,70.4,75.9,73.3,69.5,97,72,52,30.23,30.14,8,1,0,0.00
2013-7-16,93.1,85.2,71.2,75.7,73.0,70.3,97,69,49,30.29,30.22,8,1,0,0.13
2013-7-17,94.9,87.0,71.1,76.6,73.9,70.2,97,67,48,30.33,30.18,6,0,0,0.00
2013-7-18,97.0,85.9,71.9,77.1,73.6,70.7,97,69,45,30.21,30.01,5,0,0,0.00
2013-7-19,97.4,87.0,74.7,75.5,72.8,70.3,88,64,43,30.02,29.86,6,1,0,0.00
2013-7-20,93.8,84.0,74.1,75.8,71.8,66.6,85,68,46,29.92,29.80,7,1,12,0.00
2013-7-21,83.0,77.7,72.4,73.5,71.3,69.2,92,81,67,29.93,29.83,4,0,0,0.00
2013-7-22,92.8,83.4,70.5,75.2,72.8,69.3,96,72,51,29.87,29.76,6,1,0,0.00
2013-7-23,92.5,84.4,73.6,75.5,70.9,66.0,93,65,49,29.90,29.78,9,1,0,0.01
2013-7-24,81.3,74.0,61.4,66.5,58.5,53.4,83,60,39,30.04,29.90,7,1,0,0.00
2013-7-25,84.4,75.6,57.2,62.7,58.6,53.8,96,58,37,30.13,30.03,6,1,0,0.00
2013-7-26,73.9,69.6,62.3,69.4,64.9,59.1,94,85,72,30.08,29.95,5,0,0,0.20
2013-7-27,78.1,69.6,54.9,66.9,55.5,50.5,96,64,41,30.02,29.96,10,1,15,0.01
2013-7-28,81.1,72.2,52.5,58.2,55.0,48.6,97,58,34,30.07,30.00,5,1,13,0.00
2013-7-29,75.5,70.8,58.1,66.5,64.1,57.3,97,80,64,30.17,30.07,4,0,0,0.00
2013-7-30,76.1,71.4,65.9,71.4,69.0,64.1,96,92,82,30.12,29.99,5,0,0,0.90
2013-7-31,83.6,74.7,65.3,74.0,69.2,63.5,96,84,64,30.05,29.98,7,1,0,0.05
2013-8-1,88.3,77.4,62.3,70.4,64.2,56.1,98,67,35,30.09,29.98,8,1,0,0.00
2013-8-2,83.0,75.3,64.1,72.3,69.8,62.0,97,84,65,30.00,29.91,5,0,0,0.25
2013-8-3,86.5,76.2,65.8,73.5,69.1,63.1,97,80,59,30.12,29.92,6,0,0,0.00
2013-8-4,80.3,74.6,62.6,66.9,62.1,57.1,97,66,46,30.18,30.08,6,0,0,0.03
2013-8-5,74.6,71.8,66.0,69.1,66.8,62.1,93,84,73,30.10,29.89,7,1,0,0.00
2013-8-6,89.6,81.2,70.6,73.8,71.7,69.2,97,75,53,29.93,29.84,6,1,0,0.00
2013-8-7,90.5,80.6,71.4,72.6,70.3,66.8,94,73,50,29.92,29.83,13,1,13,0.00
2013-8-8,81.3,76.3,71.2,75.0,72.2,69.7,97,88,79,29.97,29.88,5,0,0,0.02
2013-8-9,82.7,75.9,68.1,73.3,69.4,67.0,98,81,65,30.07,29.95,6,0,0,0.00
2013-8-10,85.5,77.6,64.5,70.5,64.8,58.3,97,67,43,30.15,30.06,7,1,0,0.00
2013-8-11,89.1,73.3,57.2,66.8,60.0,56.1,98,68,34,30.15,30.03,6,0,0,0.00
2013-8-12,80.9,75.0,68.0,74.9,70.8,63.0,96,87,75,30.07,29.91,3,0,0,0.11
2013-8-13,80.7,73.6,62.6,67.0,62.8,54.4,97,70,52,30.13,29.96,7,1,0,0.01
2013-8-14,77.4,66.9,50.4,57.5,52.2,48.1,97,63,38,30.22,30.13,7,1,0,0.00
2013-8-15,77.1,64.6,51.5,58.6,53.3,50.1,97,70,41,30.18,30.08,7,0,0,0.00
2013-8-16,78.8,68.3,52.4,60.0,55.7,51.6,97,67,44,30.16,30.12,8,1,0,0.00
2013-8-17,83.0,73.1,56.4,67.0,60.8,54.4,97,68,46,30.19,30.10,7,1,0,0.06
2013-8-18,85.1,74.8,62.6,65.5,62.8,59.5,94,69,46,30.19,30.07,8,1,0,0.00
2013-8-19,88.3,77.6,59.0,68.1,63.7,58.1,97,65,43,30.14,30.02,7,1,0,0.00
2013-8-20,90.7,79.6,61.4,70.3,66.4,60.5,97,67,44,30.12,30.02,6,1,0,0.00
2013-8-21,91.9,81.1,63.1,70.9,66.7,61.9,97,65,40,30.13,30.02,6,1,0,0.00
2013-8-22,91.9,83.4,68.6,73.2,70.9,65.6,93,68,47,30.11,30.01,6,1,0,0.00
2013-8-23,91.7,82.1,67.7,74.8,70.1,65.2,95,69,47,30.10,30.02,7,1,0,0.00
2013-8-24,92.8,82.0,63.4,71.3,67.1,62.5,98,64,38,30.20,30.09,8,1,0,0.00
2013-8-25,94.2,82.6,61.3,71.5,66.4,56.2,97,62,30,30.27,30.15,6,1,0,0.00
2013-8-26,95.7,86.6,72.4,76.0,71.9,68.4,96,64,42,30.21,30.06,7,1,0,0.00
2013-8-27,97.0,85.5,72.0,75.0,69.9,65.1,94,62,36,30.08,29.97,8,1,0,0.06
2013-8-28,96.4,85.8,70.1,72.4,67.4,62.7,92,57,35,30.04,29.96,7,1,0,0.00
2013-8-29,98.5,87.6,70.0,75.3,71.5,67.8,94,61,40,30.04,29.93,6,1,0,0.00
2013-8-30,100.5,90.6,73.8,77.1,71.4,66.9,90,56,35,29.96,29.81,7,1,12,0.00
2013-8-31,101.6,89.8,77.1,76.7,71.5,67.8,87,58,36,29.84,29.70,10,1,0,0.05
2013-9-1,92.1,84.7,72.4,75.8,72.1,69.4,93,67,50,29.83,29.75,7,1,13,0.00
2013-9-2,86.2,77.3,63.4,65.2,62.3,59.8,90,62,42,29.96,29.90,9,1,0,0.00
2013-9-3,84.6,73.7,55.9,62.1,57.1,52.8,97,59,34,30.09,29.96,6,1,0,0.00
2013-9-4,88.9,75.5,53.7,63.7,57.9,52.6,97,59,30,30.17,30.08,5,0,0,0.00
2013-9-5,90.5,76.6,56.7,64.9,61.2,55.6,97,63,35,30.21,30.12,7,0,0,0.00
2013-9-6,92.0,79.4,59.9,66.0,63.4,58.5,97,61,37,30.18,30.03,7,1,0,0.00
2013-9-7,94.4,83.4,59.4,69.5,65.0,58.3,97,57,33,30.06,29.91,7,1,0,0.00
2013-9-8,87.7,77.5,71.0,74.4,70.7,65.5,95,81,56,30.03,29.89,6,1,0,0.30
2013-9-9,99.1,86.5,71.7,77.4,70.4,65.3,95,63,35,29.97,29.89,6,1,0,0.12
2013-9-10,98.9,86.2,69.6,72.8,66.5,61.2,95,56,30,30.08,29.97,6,1,12,0.00
2013-9-11,97.3,86.1,67.4,72.9,67.2,62.0,93,57,32,30.13,30.01,7,1,12,0.04
2013-9-12,86.3,78.0,62.5,69.7,63.0,50.6,90,62,38,30.08,29.97,9,1,0,0.00
2013-9-13,77.2,66.9,50.7,57.5,51.0,46.0,93,59,36,30.14,30.07,9,1,0,0.00
2013-9-14,78.0,65.1,45.4,53.4,45.5,39.6,97,54,26,30.18,30.04,8,1,0,0.00
2013-9-15,83.9,72.7,50.2,65.5,58.2,45.9,93,63,41,30.12,29.99,6,1,0,0.01
2013-9-16,73.5,64.9,55.1,65.1,56.6,52.5,93,75,57,30.28,30.11,6,1,0,0.01
2013-9-17,73.6,67.0,55.4,65.5,61.2,53.3,96,82,69,30.25,30.08,7,0,0,0.01
2013-9-18,91.5,77.8,64.5,71.7,68.3,63.3,96,75,49,30.08,29.95,6,1,0,0.28
2013-9-19,91.8,83.8,73.3,72.9,71.1,68.7,87,67,49,29.99,29.84,11,2,13,0.00
2013-9-20,78.0,67.6,56.2,69.8,64.7,53.9,96,91,75,29.93,29.87,5,0,0,0.62
2013-9-21,72.6,62.6,50.2,54.6,50.9,48.3,97,68,43,29.99,29.91,7,1,0,0.01
2013-9-22,77.2,63.8,44.5,56.0,51.0,43.7,97,67,37,30.04,29.94,7,0,0,0.00
2013-9-23,78.3,66.5,44.4,56.1,51.8,43.3,97,62,40,30.05,29.92,10,1,13,0.00
2013-9-24,83.1,72.1,50.3,66.4,61.7,48.4,97,72,48,29.97,29.78,8,1,12,0.00
2013-9-25,83.8,72.5,61.5,67.0,64.0,59.8,95,77,51,29.87,29.82,5,0,0,0.00
2013-9-26,86.5,69.3,56.0,67.1,60.4,55.2,98,77,43,30.02,29.87,10,1,0,0.00
2013-9-27,84.5,73.5,54.8,66.6,60.1,54.0,97,66,41,30.11,30.00,10,1,13,0.00
2013-9-28,84.5,75.2,56.6,67.9,64.1,55.5,96,70,50,30.05,29.94,11,2,17,0.01
2013-9-29,75.7,64.5,51.6,67.4,53.1,49.2,93,69,41,30.08,29.98,6,1,0,0.05
2013-9-30,80.5,67.6,46.9,64.1,59.7,46.1,97,78,51,30.01,29.89,6,1,0,0.01
2013-10-1,84.1,73.7,63.2,70.6,67.4,61.5,97,82,58,30.03,29.95,6,1,0,0.00
2013-10-2,86.6,77.4,65.5,71.7,68.3,64.6,97,75,55,30.06,29.95,7,1,0,0.00
2013-10-5,77.3,67.7,54.9,70.9,63.1,51.9,97,86,65,29.96,29.83,5,1,15,0.26
2013-10-6,57.3,52.9,46.9,52.5,44.6,40.0,95,75,53,29.94,29.87,16,1,20,0.01
2013-10-7,71.4,58.8,46.9,50.1,47.4,45.0,95,68,41,30.16,29.94,8,1,0,0.00
2013-10-8,75.6,61.5,41.7,54.1,48.2,40.6,97,66,36,30.23,30.14,8,1,12,0.00
2013-10-9,76.9,61.5,39.2,55.0,50.3,38.2,97,70,42,30.21,30.10,10,1,0,0.00
2013-10-10,78.8,66.8,48.7,64.0,57.6,47.6,97,75,52,30.17,30.01,7,0,0,0.00
2013-10-11,80.8,68.2,48.8,62.6,57.1,48.0,97,71,44,30.05,29.91,11,2,13,0.00
2013-10-12,79.0,65.6,48.5,64.2,56.9,46.6,94,76,51,30.22,29.95,7,0,0,0.07
2013-10-13,73.9,60.7,42.0,49.2,40.9,35.4,97,54,25,30.40,30.22,7,1,0,0.00
2013-10-14,67.7,59.4,40.3,54.5,46.7,38.2,95,65,45,30.35,30.07,6,1,0,0.00
2013-10-15,68.6,62.6,54.4,64.4,59.1,50.0,96,88,79,30.08,29.90,4,0,0,0.31
2013-10-16,60.8,52.1,43.1,49.9,43.4,40.9,95,74,55,30.08,29.99,8,1,0,0.00
2013-10-17,65.3,53.0,42.3,50.2,43.3,39.4,95,73,39,30.03,29.94,8,1,0,0.03
2013-10-18,62.2,53.6,41.9,47.0,41.3,36.1,95,65,43,30.09,29.99,7,1,0,0.05
2013-10-19,59.4,48.0,39.1,41.7,37.9,34.1,95,71,40,30.07,29.98,10,1,0,0.20
2013-10-20,72.3,59.8,42.2,45.3,42.5,37.1,83,55,33,30.00,29.88,11,2,16,0.00
2013-10-21,55.8,48.2,31.7,45.5,39.1,29.6,94,72,49,30.10,29.95,6,1,0,0.00
2013-10-22,61.7,47.0,30.7,47.9,39.0,29.4,96,75,51,30.10,29.83,11,1,18,0.02
2013-10-23,50.6,44.2,35.2,36.1,32.3,27.6,90,65,43,30.17,30.03,8,1,12,0.00
2013-10-24,50.2,41.2,25.4,36.0,27.2,22.9,91,60,40,30.46,30.17,13,2,17,0.00
2013-10-25,56.3,44.0,24.9,33.9,29.0,22.5,94,59,32,30.57,30.25,8,1,0,0.00
2013-10-26,66.6,53.2,32.8,45.0,37.2,28.8,87,56,41,30.25,30.03,9,1,0,0.00
2013-10-27,63.2,48.8,25.5,35.7,30.0,24.0,96,55,27,30.18,30.05,6,1,0,0.00
2013-10-28,69.2,52.3,27.3,49.1,42.0,26.1,96,71,43,30.25,30.17,7,0,0,0.00
2013-10-29,56.7,52.5,42.9,55.6,49.8,41.3,96,91,76,30.27,30.08,5,0,0,0.20
2013-10-30,73.9,67.0,56.7,67.6,63.2,55.9,98,88,78,30.07,29.88,9,1,0,0.01
2013-10-31,65.0,57.7,47.5,63.0,55.6,45.3,96,92,88,29.67,29.40,7,1,0,0.85
2013-11-1,52.9,47.8,46.3,45.3,43.4,40.9,95,85,66,29.86,29.69,2,0,0,0.01
2013-11-2,55.0,45.9,33.5,42.5,38.5,31.7,95,77,53,30.23,29.97,7,1,0,0.00
2013-11-3,58.5,49.6,28.1,42.6,35.9,27.1,97,62,41,30.34,30.18,10,1,0,0.00
2013-11-4,60.9,54.8,45.9,47.0,43.6,36.5,74,66,54,30.26,30.13,14,2,14,0.00
2013-11-5,60.0,55.6,51.3,54.2,51.6,46.6,95,87,73,30.28,30.07,8,1,0,0.15
2013-11-6,59.1,47.8,34.4,57.1,44.8,32.6,95,89,78,30.28,29.92,11,1,0,0.35
2013-11-7,47.9,36.6,30.2,39.7,33.4,28.4,97,89,71,30.44,30.37,4,0,0,0.00
2013-11-8,60.1,46.9,25.7,37.7,32.5,24.7,97,62,30,30.42,30.12,11,1,14,0.01
2013-11-9,68.0,58.6,38.9,44.2,40.0,36.5,92,52,34,30.24,30.10,8,1,12,0.00
2013-11-10,59.2,48.0,33.2,36.9,31.4,27.5,95,56,31,30.46,30.35,6,0,0,0.00
2013-11-11,61.3,52.8,43.6,48.7,40.2,35.4,76,62,51,30.27,30.17,8,1,0,0.00
2013-11-12,36.6,28.6,20.2,20.6,18.4,17.0,90,67,46,30.82,30.76,9,1,0,0.00
2013-11-13,48.8,37.5,15.8,20.9,16.4,10.5,93,47,21,30.74,30.44,11,2,15,0.00
2013-11-14,60.0,50.7,26.9,26.9,20.6,14.8,72,33,18,30.31,30.09,14,2,14,0.00
2013-11-15,52.6,48.4,44.8,43.1,36.9,29.2,83,66,43,30.10,29.97,7,1,0,0.00
2013-11-16,65.2,61.4,55.9,57.8,55.1,52.4,88,80,74,29.88,29.66,14,4,14,0.00
2013-11-17,79.3,69.8,58.8,65.6,46.2,20.0,88,48,18,29.88,29.40,17,5,18,0.17
2013-11-18,55.8,47.5,33.3,39.6,34.8,29.3,96,64,40,30.30,30.14,8,1,0,0.00
2013-11-19,48.4,39.7,27.0,31.5,28.7,25.8,96,66,47,30.40,30.26,5,1,0,0.00
2013-11-20,44.5,39.1,34.2,39.7,32.1,29.2,88,76,69,30.24,30.08,8,2,0,0.19
2013-11-21,49.7,49.3,47.7,48.9,47.8,43.2,97,95,84,30.19,30.13,3,0,0,0.33
2013-11-22,37.3,36.3,35.5,36.3,33.0,30.6,96,88,82,30.57,30.41,6,1,0,0.01
2013-11-23,33.5,28.9,22.4,21.5,15.4,10.1,69,57,38,30.77,30.63,10,2,0,0.00
2013-11-24,30.4,24.9,13.5,12.8,9.0,3.0,86,52,31,30.82,30.61,6,1,0,0.00
2013-11-25,36.0,34.3,29.9,24.0,19.0,16.1,66,53,45,30.38,30.20,5,0,0,0.00
2013-11-26,40.8,33.5,24.6,30.0,22.2,12.1,71,63,58,30.31,30.13,8,2,0,0.00
2013-11-27,30.9,23.0,17.0,12.2,10.3,8.7,81,59,40,30.44,30.33,8,1,0,0.00
2013-11-28,47.6,38.3,25.9,25.7,22.4,15.9,84,54,41,30.50,30.32,7,1,0,0.00
2013-11-29,46.4,36.9,27.2,27.4,25.3,22.1,88,64,46,30.65,30.44,6,1,0,0.00
2013-11-30,57.2,41.8,21.9,39.0,33.5,20.4,96,74,49,30.36,30.12,8,0,0,0.00
2013-12-1,60.0,47.4,34.0,42.9,38.5,31.9,96,73,51,30.17,29.99,4,0,0,0.00
2013-12-2,60.1,44.5,33.5,47.1,39.2,31.7,96,83,61,29.86,29.70,4,0,0,0.00
2013-12-3,58.7,52.6,34.9,51.5,48.6,33.6,96,87,73,29.73,29.65,7,2,0,0.00
2013-12-4,67.8,58.7,49.2,56.2,51.5,42.3,97,78,62,29.81,29.53,11,2,14,0.00
2013-12-5,28.2,26.1,22.0,22.5,17.4,13.7,88,69,60,30.35,30.12,7,1,0,0.00
2013-12-6,21.5,20.0,18.6,15.0,11.5,7.5,79,69,61,30.55,30.42,10,1,0,0.00
2013-12-7,24.0,19.9,12.0,10.8,7.8,4.3,73,59,49,30.79,30.52,7,1,0,0.00
2013-12-8,26.8,24.8,21.9,24.5,21.9,10.2,92,89,60,30.52,30.08,6,1,0,0.00
2013-12-9,25.9,23.5,21.1,16.5,14.3,12.5,77,67,63,30.40,30.26,12,1,12,0.00
2013-12-10,37.9,24.3,14.4,18.4,14.8,9.4,90,70,42,30.38,30.30,12,1,12,0.02
2013-12-11,33.9,26.7,18.6,23.2,15.6,3.7,86,63,51,30.68,30.41,7,1,0,0.00
2013-12-12,32.2,19.7,5.9,17.2,11.3,1.9,86,71,50,30.65,30.37,4,0,0,0.00
2013-12-13,36.0,31.0,15.9,31.9,26.0,13.5,94,83,56,30.26,30.04,5,0,0,0.01
2013-12-14,35.0,31.2,26.9,32.8,28.7,23.7,96,91,87,30.20,29.90,8,1,0,0.12
2013-12-15,39.5,30.7,23.2,30.7,25.4,19.6,94,81,67,30.26,30.11,7,1,0,0.04
2013-12-16,36.3,29.9,23.4,29.8,26.5,21.9,96,87,77,30.19,30.08,4,0,0,0.15
2013-12-17,44.0,37.5,25.3,31.5,27.3,23.2,93,67,53,30.31,30.22,8,1,0,0.03
2013-12-18,52.6,48.0,46.3,37.9,33.1,30.6,69,57,44,30.02,29.98,9,2,0,0.00
2013-12-19,60.1,54.5,47.2,51.3,46.5,40.7,81,75,65,29.95,29.80,12,3,12,0.00
2013-12-20,62.2,45.8,36.0,56.6,41.8,33.6,92,86,79,29.90,29.76,6,1,0,0.03
2013-12-21,36.1,33.4,32.2,34.0,31.5,30.2,94,93,91,29.89,29.60,8,0,0,0.86
2013-12-22,34.5,31.6,27.0,32.0,28.2,22.7,94,87,82,30.34,29.70,7,1,0,0.03
2013-12-23,27.0,22.5,17.3,23.0,16.8,10.8,85,78,69,30.63,30.33,8,1,0,0.00
2013-12-24,23.9,20.2,10.0,12.4,5.7,-0.4,68,53,38,30.71,30.41,10,2,14,0.00
2013-12-25,37.4,33.3,22.5,29.9,27.0,12.5,86,77,65,30.44,30.29,8,1,0,0.00
2013-12-26,51.6,37.7,22.4,32.0,24.4,19.2,95,63,28,30.43,30.29,6,1,0,0.00
2013-12-27,42.9,32.9,24.3,31.6,26.6,21.4,93,78,64,30.43,30.37,5,0,0,0.00
2013-12-28,34.2,23.6,20.9,29.9,21.7,19.2,95,93,84,30.27,30.24,1,0,0,0.00
2013-12-29,39.1,37.3,34.6,31.6,30.9,29.4,83,78,73,30.05,29.92,9,2,0,0.00
2013-12-30,14.8,10.5,8.5,3.7,2.3,1.4,73,69,58,30.42,30.39,3,0,0,0.00
2013-12-31,28.3,23.3,19.2,19.0,16.2,13.7,82,74,67,30.47,30.39,2,0,0,0.00
2014-1-1,37.7,25.3,22.4,29.2,21.5,18.9,89,85,72,30.19,30.16,3,0,0,0.00
2014-1-2,23.4,17.6,5.7,20.6,10.9,2.2,89,75,60,30.54,30.13,11,2,0,0.00